Milford, Utah Weather observations

Data are for observation ending at time listed.
 Day   Time    Ave.   Ave.  Ave.  Vector   Max.   Stn.    Total    Solar   Ave.  
  of    of     Air    Rel.  Wind   Wind    Wind   Baro.  Precip.   Rad.    Soil  
Year   Day     Temp.  Hum.  Speed  Dir.    Gust   Pres.                    Temp. 
2021   (MST)    F      %     mph   deg.    mph     mb.     in.     W/m2     F   
------------------------------------------------------------------------------
 290    0:20   32.5    79    1.0   179      1.8   847.4    0.00       0    51.0
 290    0:30   31.9    80    1.4   199      3.0   847.3    0.00       0    50.9
 290    0:40   31.8    81    1.3   196      3.1   847.3    0.00       0    50.8
 290    0:50   31.8    80    1.3   180      2.3   847.4    0.00       0    50.7
 290    1:00   32.3    83    0.5   247      1.2   847.3    0.00       0    50.8
 290    1:10   33.0    83    0.6   249      1.8   847.3    0.00       0    50.5
 290    1:20   33.7    83    1.6   256      2.8   847.3    0.00       0    50.7
 290    1:30   33.7    82    1.3   268      2.2   847.3    0.00       0    50.6
 290    1:40   33.8    81    1.1   260      2.7   847.3    0.00       0    50.8
 290    1:50   33.6    81    0.1   270      0.8   847.4    0.00       0    50.6
 290    2:00   33.1    81    0.2   260      1.4   847.3    0.00       0    50.7
 290    2:10   32.7    81    0.5   208      1.8   847.3    0.00       0    50.6
 290    2:20   31.0    82    0.5   160      1.4   847.2    0.00       0    50.5
 290    2:30   30.6    84    0.1   159      0.7   847.0    0.00       0    50.5
 290    2:40   30.1    83    0.8   162      2.3   846.9    0.00       0    50.5
 290    2:50   28.1    83    0.9   178      1.8   846.9    0.00       0    50.3
 290    3:00   27.7    86    1.2   208      2.7   846.8    0.00       0    50.2
 290    3:10   28.3    87    1.1   213      3.0   846.7    0.00       0    50.5
 290    3:20   29.7    88    1.4   236      2.8   846.6    0.00       0    50.4
 290    3:30   31.1    87    1.3   221      2.9   846.5    0.00       0    50.2
 290    3:40   32.2    84    1.6   225      3.3   846.5    0.00       0    50.3
 290    3:50   32.4    82    1.8   217      3.3   846.5    0.00       0    50.2
 290    4:00   32.2    82    1.5   207      3.1   846.4    0.00       0    50.2
 290    4:10   32.5    81    1.3   237      2.6   846.3    0.00       0    50.1
 290    4:20   32.6    80    1.0   228      2.6   846.2    0.00       0    50.2
 290    4:30   32.5    79    1.5   234      2.3   846.2    0.00       0    50.1
 290    4:40   32.4    78    1.0   238      2.0   846.1    0.00       0    50.1
 290    4:50   32.6    79    1.9   254      4.4   846.0    0.00       0    50.0
 290    5:00   33.1    77    1.6   254      3.3   846.0    0.00       0    49.8
 290    5:10   32.8    78    1.1   226      3.4   846.0    0.00       0    50.1
 290    5:20   32.5    78    1.2   231      2.5   845.9    0.00       0    50.0
 290    5:30   32.2    78    1.2   213      2.9   845.8    0.00       0    50.0
 290    5:40   32.0    79    1.2   219      2.1   845.7    0.00       0    50.0
 290    5:50   31.9    80    1.5   212      2.6   845.7    0.00       0    50.1
 290    6:00   32.1    80    1.0   212      2.3   845.7    0.00       0    49.9
 290    6:10   32.6    79    1.1   226      2.5   845.7    0.00       0    49.8
 290    6:20   32.7    79    1.3   227      2.7   845.6    0.00       0    49.7
 290    6:30   32.8    78    1.5   245      2.4   845.6    0.00       0    49.7
 290    6:40   32.6    78    0.9   241      2.0   845.6    0.00       0    49.7
 290    6:50   32.1    79    0.7   252      1.6   845.5    0.00       5    49.7
 290    7:00   32.0    80    1.2   230      2.1   845.4    0.00       7    49.6
 290    7:10   32.1    79    1.0   234      2.5   845.5    0.00      12    49.5
 290    7:20   32.4    79    1.3   200      3.1   845.4    0.00      24    49.6
 290    7:30   33.2    78    1.6   206      3.5   845.5    0.00      35    49.4
 290    7:40   34.2    76    1.8   204      3.7   845.5    0.00      47    49.4
 290    7:50   34.7    76    2.8   186      5.3   845.7    0.00      98    49.4
 290    8:00   35.3    76    2.8   181      5.7   845.9    0.00     193    49.4
 290    8:10   36.5    74    3.5   171      6.0   846.0    0.00     230    49.5
 290    8:20   37.8    73    3.7   165      5.7   846.2    0.00     269    49.3
 290    8:30   39.2    70    3.8   166      7.0   846.4    0.00     284    49.2
 290    8:40   39.6    67    3.7   168      6.8   846.5    0.00     223    49.3
 290    8:50   41.0    64    4.1   167      7.0   846.6    0.00     317    49.3
 290    9:00   42.5    63    3.9   157      6.8   846.7    0.00     383    49.4
 290    9:10   44.2    62    3.6   164      6.6   846.9    0.00     335    49.3
 290    9:20   44.7    62    4.1   163      7.5   847.1    0.00     338    49.4
 290    9:30   46.2    60    3.8   161      7.2   847.2    0.00     340    49.3
 290    9:40   47.3    59    3.8   169      7.1   847.2    0.00     416    49.3
 290    9:50   48.5    58    2.9   177      5.5   847.3    0.00     296    49.1
 290   10:00   50.9    54    2.7   145      4.7   847.3    0.00     478    49.2
 290   10:10   55.6    46    2.0   155      4.3   847.3    0.00     505    49.3
 290   10:20   58.4    39    2.1   147      4.4   847.5    0.00     514    49.1
 290   10:30   61.0    32    3.5   162      8.7   847.7    0.00     471    49.2
 290   10:40   61.8    29    4.6   167      9.3   847.8    0.00     425    49.4
 290   10:50   63.5    29    4.2   177      9.8   847.8    0.00     602    49.2
 290   11:00   65.2    27    4.0   176      8.4   848.0    0.00     520    49.3
 290   11:10   65.4    26    5.7   175     12.5   848.1    0.00     568    49.3
 290   11:20   65.5    26    4.4   178      9.6   848.2    0.00     532    49.4
 290   11:30   66.0    26    4.9   172     11.5   848.2    0.00     596    49.3
 290   11:40   66.6    25    5.8   170     12.0   848.1    0.00     631    49.4
 290   11:50   66.7    26    7.0   170     12.1   848.0    0.00     628    49.5
 290   12:00   67.2    26    6.3   175     12.4   847.8    0.00     509    49.6
 290   12:10   67.6    26    5.2   181     11.4   847.6    0.00     568    49.8
 290   12:20   68.9    25    4.6   195      9.1   847.3    0.00     640    49.7
 290   12:30   69.4    24    4.5   185     10.3   847.2    0.00     541    49.9
 290   12:40   69.1    24    6.4   183     13.1   847.0    0.00     571    49.9
 290   12:50   70.2    22    7.6   177     18.6   846.7    0.00     630    49.9
 290   13:00   71.4    20    9.4   182     21.0   846.6    0.00     585    50.2
 290   13:10   70.4    20   10.1   184     17.8   846.5    0.00     589    50.3
 290   13:20   70.9    20    8.4   186     21.3   846.2    0.00     593    50.3
 290   13:30   70.4    20    9.3   181     21.2   846.2    0.00     505    50.3
 290   13:40   70.8    20    9.2   179     20.5   845.9    0.00     613    50.4
 290   13:50   70.1    20    8.7   190     18.7   845.8    0.00     328    50.5
 290   14:00   68.8    21    8.8   185     18.7   845.6    0.00     312    50.7
 290   14:10   69.0    21    9.5   182     21.9   845.4    0.00     252    50.9
 290   14:20   69.3    22    8.1   186     20.4   845.2    0.00     478    50.9
 290   14:30   70.7    21    8.7   182     21.0   845.0    0.00     502    51.0
 290   14:40   69.7    21    6.5   190     16.7   844.8    0.00     462    51.1
 290   14:50   70.8    20    8.1   182     16.5   844.7    0.00     538    51.3
 290   15:00   70.3    20    8.4   185     16.2   844.7    0.00     377    51.4
 290   15:10   69.8    21    7.8   184     16.2   844.7    0.00     311    51.4
 290   15:20   69.5    22    9.4   178     18.5   844.6    0.00     329    51.6
 290   15:30   68.9    21    9.9   179     21.8   844.4    0.00     211    51.7
 290   15:40   68.5    22    6.6   185     13.0   844.2    0.00     215    51.7
 290   15:50   69.4    22    7.7   182     19.6   844.1    0.00     393    51.6
 290   16:00   69.5    21    7.1   185     14.7   844.1    0.00     161    51.9
 290   16:10   69.2    21    6.8   186     14.5   844.0    0.00     119    51.9
 290   16:20   68.6    22    6.7   188     14.0   843.9    0.00      77    51.8
 290   16:30   68.1    23    6.1   186     13.7   843.8    0.00      46    52.1
 290   16:40   67.4    24    5.6   182     13.0   843.7    0.00      37    52.1
 290   16:50   67.0    24    5.6   186     10.8   843.6    0.00      33    52.2
 290   17:00   66.7    24    3.9   201      9.4   843.4    0.00      30    52.2
 290   17:10   65.8    24    4.1   198      8.3   843.3    0.00      18    52.4
 290   17:20   65.2    24    4.3   198      9.9   843.1    0.00      13    52.3
 290   17:30   64.6    24    4.6   193      8.6   842.8    0.00      12    52.4
 290   17:40   63.8    25    4.2   193      8.1   842.6    0.00      11    52.3
 290   17:50   62.6    26    3.6   189      7.5   842.5    0.00       6    52.5
 290   18:00   61.5    27    2.9   189      6.0   842.4    0.00       0    52.5
 290   18:10   59.8    30    2.5   190      5.3   842.3    0.00       0    52.4
 290   18:20   57.9    32    2.0   187      3.7   842.2    0.00       0    52.6
 290   18:30   56.6    34    1.4   201      3.2   842.1    0.00       0    52.5
 290   18:40   55.3    37    1.2   209      2.8   841.9    0.00       0    52.6
 290   18:50   53.9    39    1.0   193      2.0   841.8    0.00       0    52.6
 290   19:00   52.9    40    1.3   187      3.7   841.7    0.00       0    52.6
 290   19:10   52.7    40    1.4   203      4.0   841.5    0.00       0    52.6
 290   19:20   53.1    39    1.8   200      4.3   841.5    0.00       0    52.5
 290   19:30   53.2    40    2.2   202      4.1   841.5    0.00       0    52.7
 290   19:40   53.9    38    2.0   198      3.7   841.5    0.00       0    52.6
 290   19:50   53.7    38    1.6   205      3.4   841.5    0.00       0    52.6
 290   20:00   54.1    37    1.9   212      4.2   841.4    0.00       0    52.8
 290   20:10   53.6    39    2.2   204      4.7   841.4    0.00       0    52.7
 290   20:20   52.4    42    2.1   230      4.0   841.3    0.00       0    52.8
 290   20:30   52.1    42    2.3   240      4.2   841.3    0.00       0    52.9
 290   20:40   52.0    42    2.1   223      4.3   841.3    0.00       0    52.6
 290   20:50   51.4    42    2.0   225      3.9   841.3    0.00       0    52.6
 290   21:00   50.2    45    2.0   214      4.2   841.3    0.00       0    52.6
 290   21:10   48.9    47    1.9   218      3.9   841.3    0.00       0    52.6
 290   21:20   48.6    47    1.9   243      3.3   841.2    0.00       0    52.6
 290   21:30   49.4    47    1.7   222      3.4   841.1    0.00       0    52.7
 290   21:40   49.7    47    1.8   216      3.1   840.9    0.00       0    52.7
 290   21:50   49.9    46    2.0   232      3.4   840.7    0.00       0    52.6
 290   22:00   50.0    47    1.4   214      2.9   840.6    0.00       0    52.5
 290   22:10   50.0    47    2.4   233      4.1   840.4    0.00       0    52.8
 290   22:20   50.2    46    2.6   248      4.2   840.5    0.00       0    52.4
 290   22:30   51.1    44    2.7   227      4.6   840.5    0.00       0    52.7
 290   22:40   50.9    44    2.3   230      4.7   840.5    0.00       0    52.4
 290   22:50   51.1    44    2.1   220      4.6   840.5    0.00       0    52.5
 290   23:00   51.4    43    1.9   219      3.4   840.3    0.00       0    52.3
 290   23:10   51.2    43    2.3   204      4.9   840.3    0.00       0    52.4
 290   23:20   49.8    46    2.0   211      3.5   840.3    0.00       0    52.5
 290   23:30   49.5    46    2.2   225      5.3   840.2    0.00       0    52.4
 290   23:40   50.1    45    2.9   238      4.9   840.1    0.00       0    52.5
 290   23:50   50.3    45    2.2   210      5.1   840.0    0.00       0    52.5
 291    0:00   50.4    44    3.5   195      6.0   839.9    0.00       0    52.4
 291    0:10   50.4    43    3.7   193      7.1   839.7    0.00       0    52.4

Return to Milford, Utah graphs page.


Western Regional Climate Center,wrcc@dri.edu